sensor_id;sensor_type;location;lat;lon;timestamp;P1;durP1;ratioP1;P2;durP2;ratioP2
4986;SDS011;12674;51.500;7.552;2023-07-31T00:00:47;10.68;;;3.78;;
4986;SDS011;12674;51.500;7.552;2023-07-31T00:02:50;9.98;;;3.10;;
4986;SDS011;12674;51.500;7.552;2023-07-31T00:04:56;7.07;;;3.72;;
4986;SDS011;12674;51.500;7.552;2023-07-31T00:06:59;7.50;;;3.22;;
4986;SDS011;12674;51.500;7.552;2023-07-31T00:09:02;6.88;;;3.40;;
4986;SDS011;12674;51.500;7.552;2023-07-31T00:11:06;7.40;;;3.00;;
4986;SDS011;12674;51.500;7.552;2023-07-31T00:13:09;6.20;;;3.38;;
4986;SDS011;12674;51.500;7.552;2023-07-31T00:15:13;8.30;;;3.55;;
4986;SDS011;12674;51.500;7.552;2023-07-31T00:17:17;8.68;;;3.28;;
4986;SDS011;12674;51.500;7.552;2023-07-31T00:21:50;7.60;;;3.65;;
4986;SDS011;12674;51.500;7.552;2023-07-31T00:23:53;10.55;;;3.60;;
4986;SDS011;12674;51.500;7.552;2023-07-31T00:25:56;8.50;;;3.10;;
4986;SDS011;12674;51.500;7.552;2023-07-31T00:28:00;7.85;;;3.00;;
4986;SDS011;12674;51.500;7.552;2023-07-31T00:30:04;5.25;;;2.75;;
4986;SDS011;12674;51.500;7.552;2023-07-31T00:32:08;9.77;;;3.53;;
4986;SDS011;12674;51.500;7.552;2023-07-31T00:34:11;8.85;;;3.38;;
4986;SDS011;12674;51.500;7.552;2023-07-31T00:36:14;6.95;;;3.17;;
4986;SDS011;12674;51.500;7.552;2023-07-31T00:38:17;11.55;;;3.38;;
4986;SDS011;12674;51.500;7.552;2023-07-31T00:40:20;14.20;;;4.50;;
4986;SDS011;12674;51.500;7.552;2023-07-31T00:42:24;8.43;;;3.50;;
4986;SDS011;12674;51.500;7.552;2023-07-31T00:44:29;5.35;;;3.05;;
4986;SDS011;12674;51.500;7.552;2023-07-31T00:46:30;7.55;;;3.75;;
4986;SDS011;12674;51.500;7.552;2023-07-31T00:48:34;6.93;;;3.78;;
4986;SDS011;12674;51.500;7.552;2023-07-31T00:50:36;11.50;;;4.15;;
4986;SDS011;12674;51.500;7.552;2023-07-31T00:52:40;10.40;;;3.72;;
4986;SDS011;12674;51.500;7.552;2023-07-31T00:54:43;10.95;;;3.78;;
4986;SDS011;12674;51.500;7.552;2023-07-31T00:56:47;10.88;;;3.75;;
4986;SDS011;12674;51.500;7.552;2023-07-31T00:58:50;12.52;;;4.43;;
4986;SDS011;12674;51.500;7.552;2023-07-31T01:00:55;9.18;;;3.72;;
4986;SDS011;12674;51.500;7.552;2023-07-31T01:02:58;8.55;;;3.50;;
4986;SDS011;12674;51.500;7.552;2023-07-31T01:05:01;10.20;;;4.30;;
4986;SDS011;12674;51.500;7.552;2023-07-31T01:07:11;12.93;;;4.25;;
4986;SDS011;12674;51.500;7.552;2023-07-31T01:09:19;8.70;;;4.28;;
4986;SDS011;12674;51.500;7.552;2023-07-31T01:11:25;15.32;;;4.70;;
4986;SDS011;12674;51.500;7.552;2023-07-31T01:13:31;9.82;;;3.85;;
4986;SDS011;12674;51.500;7.552;2023-07-31T01:15:34;18.00;;;4.68;;
4986;SDS011;12674;51.500;7.552;2023-07-31T01:17:38;14.20;;;4.75;;
4986;SDS011;12674;51.500;7.552;2023-07-31T01:19:41;16.13;;;4.78;;
4986;SDS011;12674;51.500;7.552;2023-07-31T01:21:53;12.18;;;4.30;;
4986;SDS011;12674;51.500;7.552;2023-07-31T01:24:08;18.02;;;5.15;;
4986;SDS011;12674;51.500;7.552;2023-07-31T01:26:24;15.38;;;5.03;;
4986;SDS011;12674;51.500;7.552;2023-07-31T01:28:32;13.40;;;5.20;;
4986;SDS011;12674;51.500;7.552;2023-07-31T01:30:41;19.35;;;5.50;;
4986;SDS011;12674;51.500;7.552;2023-07-31T01:32:47;13.85;;;5.28;;
4986;SDS011;12674;51.500;7.552;2023-07-31T01:34:51;13.48;;;4.97;;
4986;SDS011;12674;51.500;7.552;2023-07-31T01:36:55;17.13;;;5.00;;
4986;SDS011;12674;51.500;7.552;2023-07-31T01:38:57;22.77;;;6.10;;
4986;SDS011;12674;51.500;7.552;2023-07-31T01:41:01;14.73;;;4.72;;
4986;SDS011;12674;51.500;7.552;2023-07-31T01:43:05;12.80;;;4.50;;
4986;SDS011;12674;51.500;7.552;2023-07-31T01:45:09;17.25;;;5.25;;
4986;SDS011;12674;51.500;7.552;2023-07-31T01:47:12;11.57;;;5.10;;
4986;SDS011;12674;51.500;7.552;2023-07-31T01:49:16;17.48;;;5.95;;
4986;SDS011;12674;51.500;7.552;2023-07-31T01:51:19;17.15;;;5.10;;
4986;SDS011;12674;51.500;7.552;2023-07-31T01:53:22;17.40;;;4.45;;
4986;SDS011;12674;51.500;7.552;2023-07-31T01:55:25;8.65;;;4.35;;
4986;SDS011;12674;51.500;7.552;2023-07-31T01:57:27;13.20;;;5.25;;
4986;SDS011;12674;51.500;7.552;2023-07-31T01:59:32;16.65;;;5.38;;
4986;SDS011;12674;51.500;7.552;2023-07-31T02:01:35;17.23;;;5.35;;
4986;SDS011;12674;51.500;7.552;2023-07-31T02:03:38;13.85;;;4.60;;
4986;SDS011;12674;51.500;7.552;2023-07-31T02:05:43;10.90;;;5.25;;
4986;SDS011;12674;51.500;7.552;2023-07-31T02:07:46;9.60;;;4.15;;
4986;SDS011;12674;51.500;7.552;2023-07-31T02:09:49;18.30;;;5.30;;
4986;SDS011;12674;51.500;7.552;2023-07-31T02:11:54;15.60;;;4.53;;
4986;SDS011;12674;51.500;7.552;2023-07-31T02:13:57;12.05;;;4.68;;
4986;SDS011;12674;51.500;7.552;2023-07-31T02:16:01;12.98;;;4.40;;
4986;SDS011;12674;51.500;7.552;2023-07-31T02:18:04;14.82;;;4.40;;
4986;SDS011;12674;51.500;7.552;2023-07-31T02:20:07;14.35;;;5.03;;
4986;SDS011;12674;51.500;7.552;2023-07-31T02:22:11;12.00;;;4.63;;
4986;SDS011;12674;51.500;7.552;2023-07-31T02:24:14;16.80;;;5.40;;
4986;SDS011;12674;51.500;7.552;2023-07-31T02:26:19;14.95;;;4.47;;
4986;SDS011;12674;51.500;7.552;2023-07-31T02:28:22;14.32;;;4.53;;
4986;SDS011;12674;51.500;7.552;2023-07-31T02:30:24;11.63;;;4.68;;
4986;SDS011;12674;51.500;7.552;2023-07-31T02:32:29;18.60;;;4.72;;
4986;SDS011;12674;51.500;7.552;2023-07-31T02:34:32;10.95;;;4.20;;
4986;SDS011;12674;51.500;7.552;2023-07-31T02:36:34;11.55;;;4.93;;
4986;SDS011;12674;51.500;7.552;2023-07-31T02:38:37;9.18;;;4.22;;
4986;SDS011;12674;51.500;7.552;2023-07-31T02:40:40;11.45;;;4.18;;
4986;SDS011;12674;51.500;7.552;2023-07-31T02:42:42;9.73;;;4.15;;
4986;SDS011;12674;51.500;7.552;2023-07-31T02:44:46;11.02;;;4.40;;
4986;SDS011;12674;51.500;7.552;2023-07-31T02:46:49;10.48;;;4.03;;
4986;SDS011;12674;51.500;7.552;2023-07-31T02:48:53;15.57;;;4.40;;
4986;SDS011;12674;51.500;7.552;2023-07-31T02:50:56;16.10;;;4.55;;
4986;SDS011;12674;51.500;7.552;2023-07-31T02:52:59;13.25;;;4.75;;
4986;SDS011;12674;51.500;7.552;2023-07-31T02:55:02;11.10;;;4.68;;
4986;SDS011;12674;51.500;7.552;2023-07-31T02:57:05;12.90;;;4.38;;
4986;SDS011;12674;51.500;7.552;2023-07-31T02:59:08;10.85;;;5.00;;
4986;SDS011;12674;51.500;7.552;2023-07-31T03:01:11;12.65;;;5.07;;
4986;SDS011;12674;51.500;7.552;2023-07-31T03:03:14;14.63;;;4.47;;
4986;SDS011;12674;51.500;7.552;2023-07-31T03:05:18;14.88;;;4.45;;
4986;SDS011;12674;51.500;7.552;2023-07-31T03:07:22;8.80;;;4.38;;
4986;SDS011;12674;51.500;7.552;2023-07-31T03:09:25;13.85;;;4.63;;
4986;SDS011;12674;51.500;7.552;2023-07-31T03:11:28;14.27;;;4.38;;
4986;SDS011;12674;51.500;7.552;2023-07-31T03:13:32;15.00;;;5.18;;
4986;SDS011;12674;51.500;7.552;2023-07-31T03:15:35;15.50;;;3.90;;
4986;SDS011;12674;51.500;7.552;2023-07-31T03:17:38;12.18;;;4.25;;
4986;SDS011;12674;51.500;7.552;2023-07-31T03:19:41;14.02;;;4.45;;
4986;SDS011;12674;51.500;7.552;2023-07-31T03:21:45;13.57;;;4.63;;
4986;SDS011;12674;51.500;7.552;2023-07-31T03:23:47;13.90;;;4.93;;
4986;SDS011;12674;51.500;7.552;2023-07-31T03:25:56;14.50;;;4.45;;
4986;SDS011;12674;51.500;7.552;2023-07-31T03:28:02;15.40;;;5.60;;
4986;SDS011;12674;51.500;7.552;2023-07-31T03:30:06;13.20;;;4.35;;
4986;SDS011;12674;51.500;7.552;2023-07-31T03:32:10;11.40;;;4.78;;
4986;SDS011;12674;51.500;7.552;2023-07-31T03:34:13;11.70;;;4.82;;
4986;SDS011;12674;51.500;7.552;2023-07-31T03:36:16;17.23;;;5.38;;
4986;SDS011;12674;51.500;7.552;2023-07-31T03:38:20;12.35;;;4.65;;
4986;SDS011;12674;51.500;7.552;2023-07-31T03:40:24;18.42;;;4.63;;
4986;SDS011;12674;51.500;7.552;2023-07-31T03:42:27;13.40;;;4.60;;
4986;SDS011;12674;51.500;7.552;2023-07-31T03:44:29;12.70;;;3.42;;
4986;SDS011;12674;51.500;7.552;2023-07-31T03:46:32;15.82;;;4.20;;
4986;SDS011;12674;51.500;7.552;2023-07-31T03:48:36;16.70;;;5.28;;
4986;SDS011;12674;51.500;7.552;2023-07-31T03:50:39;22.23;;;4.90;;
4986;SDS011;12674;51.500;7.552;2023-07-31T03:52:42;16.08;;;4.50;;
4986;SDS011;12674;51.500;7.552;2023-07-31T03:54:46;12.80;;;4.47;;
4986;SDS011;12674;51.500;7.552;2023-07-31T03:56:48;19.60;;;5.75;;
4986;SDS011;12674;51.500;7.552;2023-07-31T03:58:51;11.77;;;4.55;;
4986;SDS011;12674;51.500;7.552;2023-07-31T04:00:54;10.35;;;4.47;;
4986;SDS011;12674;51.500;7.552;2023-07-31T04:02:57;17.75;;;4.85;;
4986;SDS011;12674;51.500;7.552;2023-07-31T04:04:59;15.82;;;4.90;;
4986;SDS011;12674;51.500;7.552;2023-07-31T04:07:02;9.98;;;4.13;;
4986;SDS011;12674;51.500;7.552;2023-07-31T04:09:06;18.65;;;4.57;;
4986;SDS011;12674;51.500;7.552;2023-07-31T04:11:10;11.45;;;4.53;;
4986;SDS011;12674;51.500;7.552;2023-07-31T04:13:13;19.27;;;5.50;;
4986;SDS011;12674;51.500;7.552;2023-07-31T04:15:15;11.18;;;4.53;;
4986;SDS011;12674;51.500;7.552;2023-07-31T04:17:18;14.55;;;4.22;;
4986;SDS011;12674;51.500;7.552;2023-07-31T04:19:21;11.63;;;4.25;;
4986;SDS011;12674;51.500;7.552;2023-07-31T04:21:24;12.60;;;4.55;;
4986;SDS011;12674;51.500;7.552;2023-07-31T04:23:27;16.52;;;4.68;;
4986;SDS011;12674;51.500;7.552;2023-07-31T04:25:30;13.07;;;4.10;;
4986;SDS011;12674;51.500;7.552;2023-07-31T04:27:35;9.25;;;3.90;;
4986;SDS011;12674;51.500;7.552;2023-07-31T04:29:43;11.50;;;4.68;;
4986;SDS011;12674;51.500;7.552;2023-07-31T04:31:47;12.05;;;4.53;;
4986;SDS011;12674;51.500;7.552;2023-07-31T04:33:50;12.65;;;4.43;;
4986;SDS011;12674;51.500;7.552;2023-07-31T04:35:54;7.25;;;4.25;;
4986;SDS011;12674;51.500;7.552;2023-07-31T04:37:57;10.13;;;4.53;;
4986;SDS011;12674;51.500;7.552;2023-07-31T04:40:00;10.98;;;4.90;;
4986;SDS011;12674;51.500;7.552;2023-07-31T04:42:03;10.25;;;4.38;;
4986;SDS011;12674;51.500;7.552;2023-07-31T04:44:06;12.27;;;4.85;;
4986;SDS011;12674;51.500;7.552;2023-07-31T04:46:09;12.68;;;4.68;;
4986;SDS011;12674;51.500;7.552;2023-07-31T04:48:12;21.75;;;5.07;;
4986;SDS011;12674;51.500;7.552;2023-07-31T04:50:15;14.93;;;4.18;;
4986;SDS011;12674;51.500;7.552;2023-07-31T04:52:18;12.05;;;4.78;;
4986;SDS011;12674;51.500;7.552;2023-07-31T04:54:21;10.73;;;4.50;;
4986;SDS011;12674;51.500;7.552;2023-07-31T04:56:37;11.55;;;4.07;;
4986;SDS011;12674;51.500;7.552;2023-07-31T04:58:41;18.08;;;4.97;;
4986;SDS011;12674;51.500;7.552;2023-07-31T05:00:45;12.48;;;4.55;;
4986;SDS011;12674;51.500;7.552;2023-07-31T05:02:48;10.25;;;3.92;;
4986;SDS011;12674;51.500;7.552;2023-07-31T05:04:51;11.50;;;3.78;;
4986;SDS011;12674;51.500;7.552;2023-07-31T05:06:54;13.05;;;5.28;;
4986;SDS011;12674;51.500;7.552;2023-07-31T05:08:57;18.27;;;5.15;;
4986;SDS011;12674;51.500;7.552;2023-07-31T05:11:00;10.40;;;3.85;;
4986;SDS011;12674;51.500;7.552;2023-07-31T05:13:03;13.75;;;4.38;;
4986;SDS011;12674;51.500;7.552;2023-07-31T05:15:07;10.68;;;3.67;;
4986;SDS011;12674;51.500;7.552;2023-07-31T05:17:13;10.02;;;3.35;;
4986;SDS011;12674;51.500;7.552;2023-07-31T05:19:16;17.88;;;4.78;;
4986;SDS011;12674;51.500;7.552;2023-07-31T05:21:19;19.08;;;4.18;;
4986;SDS011;12674;51.500;7.552;2023-07-31T05:23:22;19.90;;;5.60;;
4986;SDS011;12674;51.500;7.552;2023-07-31T05:25:25;16.17;;;5.10;;
4986;SDS011;12674;51.500;7.552;2023-07-31T05:27:28;14.55;;;4.50;;
4986;SDS011;12674;51.500;7.552;2023-07-31T05:29:30;12.65;;;4.57;;
4986;SDS011;12674;51.500;7.552;2023-07-31T05:31:33;13.05;;;5.03;;
4986;SDS011;12674;51.500;7.552;2023-07-31T05:33:38;16.35;;;5.85;;
4986;SDS011;12674;51.500;7.552;2023-07-31T05:35:41;13.35;;;5.10;;
4986;SDS011;12674;51.500;7.552;2023-07-31T05:37:46;9.20;;;3.90;;
4986;SDS011;12674;51.500;7.552;2023-07-31T05:39:49;10.30;;;4.20;;
4986;SDS011;12674;51.500;7.552;2023-07-31T05:41:52;11.02;;;4.57;;
4986;SDS011;12674;51.500;7.552;2023-07-31T05:43:55;10.30;;;4.35;;
4986;SDS011;12674;51.500;7.552;2023-07-31T05:45:58;12.13;;;4.50;;
4986;SDS011;12674;51.500;7.552;2023-07-31T05:48:00;17.15;;;4.53;;
4986;SDS011;12674;51.500;7.552;2023-07-31T05:50:05;15.50;;;5.10;;
4986;SDS011;12674;51.500;7.552;2023-07-31T05:52:08;14.27;;;4.70;;
4986;SDS011;12674;51.500;7.552;2023-07-31T05:54:11;11.90;;;4.80;;
4986;SDS011;12674;51.500;7.552;2023-07-31T05:56:14;17.58;;;4.53;;
4986;SDS011;12674;51.500;7.552;2023-07-31T05:58:16;11.98;;;4.68;;
4986;SDS011;12674;51.500;7.552;2023-07-31T06:00:19;11.82;;;4.45;;
4986;SDS011;12674;51.500;7.552;2023-07-31T06:02:23;11.05;;;4.57;;
4986;SDS011;12674;51.500;7.552;2023-07-31T06:04:26;19.98;;;5.22;;
4986;SDS011;12674;51.500;7.552;2023-07-31T06:06:31;16.15;;;4.50;;
4986;SDS011;12674;51.500;7.552;2023-07-31T06:08:34;16.90;;;5.20;;
4986;SDS011;12674;51.500;7.552;2023-07-31T06:10:37;9.88;;;4.65;;
4986;SDS011;12674;51.500;7.552;2023-07-31T06:12:40;10.82;;;5.03;;
4986;SDS011;12674;51.500;7.552;2023-07-31T06:14:42;11.85;;;5.18;;
4986;SDS011;12674;51.500;7.552;2023-07-31T06:16:45;17.65;;;5.45;;
4986;SDS011;12674;51.500;7.552;2023-07-31T06:18:47;17.00;;;4.95;;
4986;SDS011;12674;51.500;7.552;2023-07-31T06:20:50;10.25;;;4.45;;
4986;SDS011;12674;51.500;7.552;2023-07-31T06:22:56;13.57;;;5.40;;
4986;SDS011;12674;51.500;7.552;2023-07-31T06:24:59;10.93;;;5.78;;
4986;SDS011;12674;51.500;7.552;2023-07-31T06:27:02;15.15;;;5.72;;
4986;SDS011;12674;51.500;7.552;2023-07-31T06:29:06;13.50;;;5.65;;
4986;SDS011;12674;51.500;7.552;2023-07-31T06:31:10;11.63;;;5.35;;
4986;SDS011;12674;51.500;7.552;2023-07-31T06:33:13;10.48;;;4.80;;
4986;SDS011;12674;51.500;7.552;2023-07-31T06:35:16;10.90;;;5.28;;
4986;SDS011;12674;51.500;7.552;2023-07-31T06:37:19;12.18;;;5.22;;
4986;SDS011;12674;51.500;7.552;2023-07-31T06:39:23;12.02;;;5.07;;
4986;SDS011;12674;51.500;7.552;2023-07-31T06:41:26;12.57;;;4.85;;
4986;SDS011;12674;51.500;7.552;2023-07-31T06:43:29;15.80;;;5.38;;
4986;SDS011;12674;51.500;7.552;2023-07-31T06:45:32;13.10;;;5.07;;
4986;SDS011;12674;51.500;7.552;2023-07-31T06:47:36;7.68;;;4.72;;
4986;SDS011;12674;51.500;7.552;2023-07-31T06:49:39;12.93;;;5.18;;
4986;SDS011;12674;51.500;7.552;2023-07-31T06:51:42;12.77;;;4.50;;
4986;SDS011;12674;51.500;7.552;2023-07-31T06:53:45;22.50;;;6.07;;
4986;SDS011;12674;51.500;7.552;2023-07-31T06:55:50;11.75;;;4.30;;
4986;SDS011;12674;51.500;7.552;2023-07-31T06:57:53;14.63;;;5.13;;
4986;SDS011;12674;51.500;7.552;2023-07-31T06:59:57;13.13;;;4.53;;
4986;SDS011;12674;51.500;7.552;2023-07-31T07:02:00;10.52;;;5.68;;
4986;SDS011;12674;51.500;7.552;2023-07-31T07:04:07;10.52;;;5.68;;
4986;SDS011;12674;51.500;7.552;2023-07-31T07:06:10;15.18;;;5.47;;
4986;SDS011;12674;51.500;7.552;2023-07-31T07:08:13;7.95;;;4.43;;
4986;SDS011;12674;51.500;7.552;2023-07-31T07:10:16;16.20;;;4.80;;
4986;SDS011;12674;51.500;7.552;2023-07-31T07:12:21;10.98;;;4.82;;
4986;SDS011;12674;51.500;7.552;2023-07-31T07:14:24;8.02;;;4.38;;
4986;SDS011;12674;51.500;7.552;2023-07-31T07:16:28;12.20;;;4.57;;
4986;SDS011;12674;51.500;7.552;2023-07-31T07:18:31;9.30;;;4.32;;
4986;SDS011;12674;51.500;7.552;2023-07-31T07:20:34;7.05;;;4.30;;
4986;SDS011;12674;51.500;7.552;2023-07-31T07:22:37;8.45;;;4.57;;
4986;SDS011;12674;51.500;7.552;2023-07-31T07:24:45;13.13;;;4.88;;
4986;SDS011;12674;51.500;7.552;2023-07-31T07:26:47;7.85;;;4.15;;
4986;SDS011;12674;51.500;7.552;2023-07-31T07:28:51;9.00;;;3.80;;
4986;SDS011;12674;51.500;7.552;2023-07-31T07:30:54;11.45;;;4.60;;
4986;SDS011;12674;51.500;7.552;2023-07-31T07:35:47;10.93;;;5.00;;
4986;SDS011;12674;51.500;7.552;2023-07-31T07:37:50;8.77;;;4.65;;
4986;SDS011;12674;51.500;7.552;2023-07-31T07:39:53;7.32;;;3.70;;
4986;SDS011;12674;51.500;7.552;2023-07-31T07:41:57;12.80;;;4.57;;
4986;SDS011;12674;51.500;7.552;2023-07-31T07:44:00;6.70;;;4.30;;
4986;SDS011;12674;51.500;7.552;2023-07-31T07:46:03;9.45;;;4.75;;
4986;SDS011;12674;51.500;7.552;2023-07-31T07:48:15;12.23;;;3.70;;
4986;SDS011;12674;51.500;7.552;2023-07-31T07:50:18;9.23;;;3.90;;
4986;SDS011;12674;51.500;7.552;2023-07-31T07:52:21;8.07;;;3.80;;
4986;SDS011;12674;51.500;7.552;2023-07-31T07:54:24;6.85;;;3.92;;
4986;SDS011;12674;51.500;7.552;2023-07-31T07:56:27;5.15;;;3.38;;
4986;SDS011;12674;51.500;7.552;2023-07-31T07:58:30;9.95;;;3.70;;
4986;SDS011;12674;51.500;7.552;2023-07-31T08:00:35;11.63;;;4.28;;
4986;SDS011;12674;51.500;7.552;2023-07-31T08:02:38;8.98;;;3.72;;
4986;SDS011;12674;51.500;7.552;2023-07-31T08:04:41;10.23;;;3.97;;
4986;SDS011;12674;51.500;7.552;2023-07-31T08:06:44;6.35;;;3.70;;
4986;SDS011;12674;51.500;7.552;2023-07-31T08:08:47;10.25;;;4.97;;
4986;SDS011;12674;51.500;7.552;2023-07-31T08:10:49;9.52;;;4.22;;
4986;SDS011;12674;51.500;7.552;2023-07-31T08:12:52;14.77;;;5.03;;
4986;SDS011;12674;51.500;7.552;2023-07-31T08:14:55;10.75;;;4.82;;
4986;SDS011;12674;51.500;7.552;2023-07-31T08:17:00;8.18;;;4.07;;
4986;SDS011;12674;51.500;7.552;2023-07-31T08:19:03;11.40;;;4.65;;
4986;SDS011;12674;51.500;7.552;2023-07-31T08:21:09;10.95;;;3.78;;
4986;SDS011;12674;51.500;7.552;2023-07-31T08:23:11;6.40;;;3.70;;
4986;SDS011;12674;51.500;7.552;2023-07-31T08:25:14;9.75;;;3.83;;
4986;SDS011;12674;51.500;7.552;2023-07-31T08:27:17;8.82;;;4.47;;
4986;SDS011;12674;51.500;7.552;2023-07-31T08:29:20;9.77;;;3.90;;
4986;SDS011;12674;51.500;7.552;2023-07-31T08:31:23;8.63;;;3.97;;
4986;SDS011;12674;51.500;7.552;2023-07-31T08:33:27;5.93;;;3.55;;
4986;SDS011;12674;51.500;7.552;2023-07-31T08:35:29;9.75;;;3.50;;
4986;SDS011;12674;51.500;7.552;2023-07-31T08:37:33;10.35;;;4.45;;
4986;SDS011;12674;51.500;7.552;2023-07-31T08:39:37;8.00;;;4.65;;
4986;SDS011;12674;51.500;7.552;2023-07-31T08:41:41;9.43;;;4.20;;
4986;SDS011;12674;51.500;7.552;2023-07-31T08:43:44;7.25;;;3.50;;
4986;SDS011;12674;51.500;7.552;2023-07-31T08:45:48;8.18;;;3.90;;
4986;SDS011;12674;51.500;7.552;2023-07-31T08:47:52;9.13;;;4.38;;
4986;SDS011;12674;51.500;7.552;2023-07-31T08:49:57;7.68;;;4.50;;
4986;SDS011;12674;51.500;7.552;2023-07-31T08:52:01;6.95;;;3.92;;
4986;SDS011;12674;51.500;7.552;2023-07-31T08:54:04;5.53;;;3.85;;
4986;SDS011;12674;51.500;7.552;2023-07-31T08:56:07;7.50;;;4.03;;
4986;SDS011;12674;51.500;7.552;2023-07-31T08:58:09;5.97;;;3.60;;
4986;SDS011;12674;51.500;7.552;2023-07-31T09:00:13;6.60;;;3.75;;
4986;SDS011;12674;51.500;7.552;2023-07-31T09:02:17;9.95;;;3.63;;
4986;SDS011;12674;51.500;7.552;2023-07-31T09:04:21;7.68;;;3.83;;
4986;SDS011;12674;51.500;7.552;2023-07-31T09:06:27;4.63;;;2.47;;
4986;SDS011;12674;51.500;7.552;2023-07-31T09:08:31;4.93;;;3.05;;
4986;SDS011;12674;51.500;7.552;2023-07-31T09:10:34;4.65;;;2.58;;
4986;SDS011;12674;51.500;7.552;2023-07-31T09:12:36;5.70;;;2.90;;
4986;SDS011;12674;51.500;7.552;2023-07-31T09:14:40;4.95;;;2.75;;
4986;SDS011;12674;51.500;7.552;2023-07-31T09:16:54;6.82;;;2.92;;
4986;SDS011;12674;51.500;7.552;2023-07-31T09:18:58;3.75;;;2.47;;
4986;SDS011;12674;51.500;7.552;2023-07-31T09:21:03;7.47;;;3.10;;
4986;SDS011;12674;51.500;7.552;2023-07-31T09:23:08;4.72;;;2.75;;
4986;SDS011;12674;51.500;7.552;2023-07-31T09:25:15;3.45;;;2.25;;
4986;SDS011;12674;51.500;7.552;2023-07-31T09:27:19;5.30;;;2.90;;
4986;SDS011;12674;51.500;7.552;2023-07-31T09:29:22;4.47;;;2.88;;
4986;SDS011;12674;51.500;7.552;2023-07-31T09:31:31;3.65;;;2.72;;
4986;SDS011;12674;51.500;7.552;2023-07-31T09:33:53;3.95;;;2.45;;
4986;SDS011;12674;51.500;7.552;2023-07-31T09:35:58;4.78;;;2.67;;
4986;SDS011;12674;51.500;7.552;2023-07-31T09:38:03;2.63;;;2.38;;
4986;SDS011;12674;51.500;7.552;2023-07-31T09:40:08;3.13;;;2.42;;
4986;SDS011;12674;51.500;7.552;2023-07-31T09:42:11;5.85;;;2.83;;
4986;SDS011;12674;51.500;7.552;2023-07-31T09:44:14;7.63;;;3.00;;
4986;SDS011;12674;51.500;7.552;2023-07-31T09:46:21;7.28;;;2.90;;
4986;SDS011;12674;51.500;7.552;2023-07-31T09:48:24;4.78;;;2.80;;
4986;SDS011;12674;51.500;7.552;2023-07-31T09:50:29;4.15;;;3.13;;
4986;SDS011;12674;51.500;7.552;2023-07-31T09:52:32;5.90;;;3.33;;
4986;SDS011;12674;51.500;7.552;2023-07-31T09:54:34;4.40;;;3.00;;
4986;SDS011;12674;51.500;7.552;2023-07-31T09:56:41;4.40;;;3.15;;
4986;SDS011;12674;51.500;7.552;2023-07-31T09:58:45;4.05;;;2.63;;
4986;SDS011;12674;51.500;7.552;2023-07-31T10:00:48;3.47;;;2.95;;
4986;SDS011;12674;51.500;7.552;2023-07-31T10:02:52;5.03;;;2.35;;
4986;SDS011;12674;51.500;7.552;2023-07-31T10:04:56;5.00;;;2.80;;
4986;SDS011;12674;51.500;7.552;2023-07-31T10:07:00;5.38;;;2.60;;
4986;SDS011;12674;51.500;7.552;2023-07-31T10:09:06;4.57;;;2.75;;
4986;SDS011;12674;51.500;7.552;2023-07-31T10:11:10;10.60;;;2.60;;
4986;SDS011;12674;51.500;7.552;2023-07-31T10:13:15;3.03;;;2.60;;
4986;SDS011;12674;51.500;7.552;2023-07-31T10:15:18;4.30;;;2.55;;
4986;SDS011;12674;51.500;7.552;2023-07-31T10:17:21;3.78;;;2.40;;
4986;SDS011;12674;51.500;7.552;2023-07-31T10:19:25;5.75;;;2.60;;
4986;SDS011;12674;51.500;7.552;2023-07-31T10:21:30;3.70;;;2.47;;
4986;SDS011;12674;51.500;7.552;2023-07-31T10:23:36;4.25;;;2.08;;
4986;SDS011;12674;51.500;7.552;2023-07-31T10:25:40;4.38;;;2.40;;
4986;SDS011;12674;51.500;7.552;2023-07-31T10:27:43;4.85;;;2.28;;
4986;SDS011;12674;51.500;7.552;2023-07-31T10:29:48;2.60;;;1.90;;
4986;SDS011;12674;51.500;7.552;2023-07-31T10:31:51;4.00;;;2.50;;
4986;SDS011;12674;51.500;7.552;2023-07-31T10:33:55;4.97;;;2.90;;
4986;SDS011;12674;51.500;7.552;2023-07-31T10:36:12;1.98;;;1.80;;
4986;SDS011;12674;51.500;7.552;2023-07-31T10:38:15;4.82;;;2.20;;
4986;SDS011;12674;51.500;7.552;2023-07-31T10:40:19;3.40;;;1.70;;
4986;SDS011;12674;51.500;7.552;2023-07-31T10:42:27;1.63;;;1.50;;
4986;SDS011;12674;51.500;7.552;2023-07-31T10:44:29;4.45;;;2.17;;
4986;SDS011;12674;51.500;7.552;2023-07-31T10:46:34;3.13;;;1.80;;
4986;SDS011;12674;51.500;7.552;2023-07-31T10:48:37;1.98;;;1.42;;
4986;SDS011;12674;51.500;7.552;2023-07-31T10:50:46;5.50;;;1.58;;
4986;SDS011;12674;51.500;7.552;2023-07-31T10:52:51;5.00;;;1.73;;
4986;SDS011;12674;51.500;7.552;2023-07-31T10:55:13;3.72;;;1.92;;
4986;SDS011;12674;51.500;7.552;2023-07-31T10:57:20;2.80;;;1.92;;
4986;SDS011;12674;51.500;7.552;2023-07-31T10:59:26;1.98;;;1.58;;
4986;SDS011;12674;51.500;7.552;2023-07-31T11:03:56;1.83;;;1.48;;
4986;SDS011;12674;51.500;7.552;2023-07-31T11:06:00;2.35;;;1.67;;
4986;SDS011;12674;51.500;7.552;2023-07-31T11:08:09;2.70;;;1.50;;
4986;SDS011;12674;51.500;7.552;2023-07-31T11:10:15;1.98;;;1.50;;
4986;SDS011;12674;51.500;7.552;2023-07-31T11:12:19;2.15;;;1.52;;
4986;SDS011;12674;51.500;7.552;2023-07-31T11:14:22;1.92;;;1.60;;
4986;SDS011;12674;51.500;7.552;2023-07-31T11:16:25;4.53;;;1.35;;
4986;SDS011;12674;51.500;7.552;2023-07-31T11:18:30;3.63;;;1.73;;
4986;SDS011;12674;51.500;7.552;2023-07-31T11:20:32;1.83;;;1.42;;
4986;SDS011;12674;51.500;7.552;2023-07-31T11:22:35;4.95;;;1.80;;
4986;SDS011;12674;51.500;7.552;2023-07-31T11:24:38;3.88;;;1.60;;
4986;SDS011;12674;51.500;7.552;2023-07-31T11:26:47;1.80;;;1.70;;
4986;SDS011;12674;51.500;7.552;2023-07-31T11:28:51;1.95;;;1.58;;
4986;SDS011;12674;51.500;7.552;2023-07-31T11:30:55;2.90;;;1.95;;
4986;SDS011;12674;51.500;7.552;2023-07-31T11:32:59;7.35;;;2.08;;
4986;SDS011;12674;51.500;7.552;2023-07-31T11:35:06;2.25;;;1.95;;
4986;SDS011;12674;51.500;7.552;2023-07-31T11:37:10;2.28;;;1.98;;
4986;SDS011;12674;51.500;7.552;2023-07-31T11:39:12;2.45;;;2.20;;
4986;SDS011;12674;51.500;7.552;2023-07-31T11:41:16;4.60;;;2.00;;
4986;SDS011;12674;51.500;7.552;2023-07-31T11:43:19;2.38;;;1.95;;
4986;SDS011;12674;51.500;7.552;2023-07-31T11:45:24;4.68;;;2.58;;
4986;SDS011;12674;51.500;7.552;2023-07-31T11:47:28;3.10;;;2.38;;
4986;SDS011;12674;51.500;7.552;2023-07-31T11:49:32;3.70;;;2.20;;
4986;SDS011;12674;51.500;7.552;2023-07-31T11:51:39;2.97;;;2.67;;
4986;SDS011;12674;51.500;7.552;2023-07-31T11:53:43;4.53;;;2.50;;
4986;SDS011;12674;51.500;7.552;2023-07-31T11:55:46;3.42;;;2.22;;
4986;SDS011;12674;51.500;7.552;2023-07-31T11:57:50;6.15;;;2.60;;
4986;SDS011;12674;51.500;7.552;2023-07-31T11:59:53;5.47;;;3.30;;
4986;SDS011;12674;51.500;7.552;2023-07-31T12:01:56;5.10;;;2.88;;
4986;SDS011;12674;51.500;7.552;2023-07-31T12:03:59;5.93;;;3.13;;
4986;SDS011;12674;51.500;7.552;2023-07-31T12:06:03;6.43;;;3.40;;
4986;SDS011;12674;51.500;7.552;2023-07-31T12:08:10;9.55;;;3.00;;
4986;SDS011;12674;51.500;7.552;2023-07-31T12:10:27;4.97;;;2.78;;
4986;SDS011;12674;51.500;7.552;2023-07-31T12:12:31;6.40;;;3.40;;
4986;SDS011;12674;51.500;7.552;2023-07-31T12:14:33;4.85;;;3.33;;
4986;SDS011;12674;51.500;7.552;2023-07-31T12:16:36;9.60;;;3.28;;
4986;SDS011;12674;51.500;7.552;2023-07-31T12:18:40;4.05;;;3.10;;
4986;SDS011;12674;51.500;7.552;2023-07-31T12:20:43;5.88;;;2.65;;
4986;SDS011;12674;51.500;7.552;2023-07-31T12:22:47;8.07;;;3.95;;
4986;SDS011;12674;51.500;7.552;2023-07-31T12:24:51;5.55;;;3.30;;
4986;SDS011;12674;51.500;7.552;2023-07-31T12:26:56;8.15;;;2.90;;
4986;SDS011;12674;51.500;7.552;2023-07-31T12:28:59;7.40;;;3.17;;
4986;SDS011;12674;51.500;7.552;2023-07-31T12:31:03;4.32;;;3.05;;
4986;SDS011;12674;51.500;7.552;2023-07-31T12:33:07;10.27;;;3.30;;
4986;SDS011;12674;51.500;7.552;2023-07-31T12:35:15;6.15;;;3.60;;
4986;SDS011;12674;51.500;7.552;2023-07-31T12:37:18;4.47;;;2.40;;
4986;SDS011;12674;51.500;7.552;2023-07-31T12:39:23;12.85;;;2.50;;
4986;SDS011;12674;51.500;7.552;2023-07-31T12:41:27;6.65;;;2.67;;